Terminal Aerodrome Forecast
Issued by NWS

Home | Current Version | Previous Version | Text Only | Print | Product List | Glossary On
Versions: 1 2 3 4 5 6 7 8 9 10 11 12 13 14 15 16 17 18 19 20 21 22 23 24 25 26 27 28 29 30 31 32
000
FTUS45 KPSR 162300
TAFPHX
TAF
KPHX 162337Z 1700/1724 08012KT P6SM VCSH SCT070 BKN090 OVC120
      TEMPO 1700/1703 -SHRA SCT030
     FM170800 12008KT P6SM SHRA BKN060 OVC100
     FM171500 11012KT P6SM -SHRA SCT040 BKN060 OVC080=

USA.gov is the U.S. government's official web portal to all federal, state and local government web resources and services.